Atalissa, Iowa
Current Conditions -  °F | °C
As of 8:15 AM on Friday 28 Nov 2014 (Local Time) from KMUT Reporting Station
Scattered Clouds Scattered Clouds  
Wind Chill:   Ceiling: Unl
Heat Index: 21°   Visibility: 10mi
Dew Point: 14°   Wind: 12mph
Humidity: 74%   Direction: 140°SE
Pressure: 30.12"   Gusts: 20mph
Location:  41.57°N, 91.17°W
Report Text: KMUT 281415Z AUTO 14010G17KT 10SM SCT120 M06/M10 A3012 RMK AO2
Loading
Personal Weather Stations






























Interactive Weather Map New forecast layout! Learn more

10-Day Weather Forecast

Advertisements
Track Severe Weather on mobile